Аэропорт: Ленкорань. Ленкорань

ICAO: UBBL

METAR:
2018/09/23 11:00
UBBL 231100Z 02004KT 9999 BKN042 26/18 Q1016 R33/CLRD// NOSIG RMK MT OP
METAR:
2018/09/23 06:00
TAF UBBL 230617Z 2306/2406 06008KT 8000 BKN030 BKN100 TX26/2311Z TN16/2402Z 
      TEMPO 2306/2312 36006KT 5000 -TSRA SCT030CB 
      TEMPO 2312/2318 10006KT